createdAt,value
2022-11-29T00:12:41.927Z,4.93
2022-11-29T00:32:41.837Z,4.90
2022-11-29T00:52:41.850Z,5.01
2022-11-29T01:12:41.865Z,4.95
2022-11-29T01:32:41.873Z,4.95
2022-11-29T01:52:41.899Z,4.89
2022-11-29T02:12:41.800Z,4.82
2022-11-29T02:32:41.825Z,4.87
2022-11-29T02:52:41.828Z,4.83
2022-11-29T03:12:41.844Z,4.69
2022-11-29T03:32:41.857Z,4.80
2022-11-29T03:52:41.875Z,4.67
2022-11-29T04:12:41.777Z,4.66
2022-11-29T04:32:41.791Z,4.82
2022-11-29T04:52:41.807Z,4.85
2022-11-29T05:12:41.817Z,5.14
2022-11-29T05:32:41.833Z,5.15
2022-11-29T05:52:41.745Z,5.30
2022-11-29T06:12:41.763Z,5.35
2022-11-29T06:32:41.772Z,5.29
2022-11-29T06:52:41.802Z,5.15
2022-11-29T07:12:41.802Z,5.18
2022-11-29T07:32:41.818Z,5.27
2022-11-29T07:52:41.741Z,5.26
2022-11-29T08:12:41.740Z,5.32
2022-11-29T08:32:41.760Z,5.40
2022-11-29T08:52:41.750Z,5.56
2022-11-29T09:12:41.771Z,5.78
2022-11-29T09:32:41.680Z,5.89
2022-11-29T09:52:41.695Z,5.97
2022-11-29T10:12:41.706Z,6.15
2022-11-29T10:32:41.725Z,6.12
2022-11-29T10:52:41.635Z,6.15
2022-11-29T11:12:41.657Z,6.17
2022-11-29T11:32:41.672Z,6.30
2022-11-29T11:52:41.694Z,6.29
2022-11-29T12:12:41.613Z,6.23
2022-11-29T12:32:41.626Z,6.12
2022-11-29T12:52:41.642Z,5.91
2022-11-29T13:12:41.654Z,5.97
2022-11-29T13:32:41.569Z,5.88
2022-11-29T13:52:41.586Z,5.97
2022-11-29T14:12:41.597Z,5.84
2022-11-29T14:32:41.621Z,5.76
2022-11-29T14:52:41.572Z,5.70
2022-11-29T15:12:41.562Z,5.66
2022-11-29T15:32:41.596Z,5.58
2022-11-29T15:52:41.607Z,5.45
2022-11-29T16:12:41.541Z,5.41
2022-11-29T16:32:41.543Z,5.32
2022-11-29T16:52:41.563Z,5.34
2022-11-29T17:12:41.595Z,5.37
2022-11-29T17:32:41.511Z,5.30
2022-11-29T17:52:41.557Z,5.26
2022-11-29T18:12:41.547Z,5.20
2022-11-29T18:32:41.470Z,5.20
2022-11-29T18:52:41.486Z,5.22
2022-11-29T19:12:41.526Z,5.13
2022-11-29T19:32:41.541Z,5.08
2022-11-29T19:52:41.483Z,4.97
2022-11-29T20:12:41.488Z,4.72
2022-11-29T20:32:41.522Z,4.56
2022-11-29T20:52:41.435Z,4.49
2022-11-29T21:32:41.486Z,4.19
2022-11-29T21:52:41.581Z,3.98
2022-11-29T22:12:41.441Z,3.89
2022-11-29T22:32:41.463Z,3.89
2022-11-29T22:52:41.489Z,3.79
2022-11-29T23:12:41.412Z,3.91
2022-11-29T23:32:43.203Z,3.86
2022-11-29T23:52:41.465Z,3.80
